sensor_id;sensor_type;location;lat;lon;timestamp;P1;durP1;ratioP1;P2;durP2;ratioP2
14965;SDS011;7577;45.226;5.798;2022-07-29T00:01:43;2.73;;;1.80;;
14965;SDS011;7577;45.226;5.798;2022-07-29T00:04:13;2.20;;;1.60;;
14965;SDS011;7577;45.226;5.798;2022-07-29T00:06:45;3.17;;;2.10;;
14965;SDS011;7577;45.226;5.798;2022-07-29T00:09:15;2.60;;;2.10;;
14965;SDS011;7577;45.226;5.798;2022-07-29T00:11:45;1.70;;;1.60;;
14965;SDS011;7577;45.226;5.798;2022-07-29T00:14:16;3.00;;;1.70;;
14965;SDS011;7577;45.226;5.798;2022-07-29T00:17:08;3.37;;;1.80;;
14965;SDS011;7577;45.226;5.798;2022-07-29T00:19:41;3.23;;;1.70;;
14965;SDS011;7577;45.226;5.798;2022-07-29T00:22:14;3.27;;;1.60;;
14965;SDS011;7577;45.226;5.798;2022-07-29T00:24:47;1.80;;;1.70;;
14965;SDS011;7577;45.226;5.798;2022-07-29T00:27:20;3.67;;;1.57;;
14965;SDS011;7577;45.226;5.798;2022-07-29T00:29:55;2.40;;;1.60;;
14965;SDS011;7577;45.226;5.798;2022-07-29T00:32:27;1.60;;;1.43;;
14965;SDS011;7577;45.226;5.798;2022-07-29T00:35:08;2.27;;;2.00;;
14965;SDS011;7577;45.226;5.798;2022-07-29T00:37:56;2.10;;;1.90;;
14965;SDS011;7577;45.226;5.798;2022-07-29T00:40:26;4.53;;;1.70;;
14965;SDS011;7577;45.226;5.798;2022-07-29T00:42:59;2.07;;;1.87;;
14965;SDS011;7577;45.226;5.798;2022-07-29T00:45:32;1.67;;;1.43;;
14965;SDS011;7577;45.226;5.798;2022-07-29T00:48:03;2.43;;;1.83;;
14965;SDS011;7577;45.226;5.798;2022-07-29T00:50:36;2.30;;;1.80;;
14965;SDS011;7577;45.226;5.798;2022-07-29T00:53:07;3.10;;;1.90;;
14965;SDS011;7577;45.226;5.798;2022-07-29T00:55:49;2.03;;;1.73;;
14965;SDS011;7577;45.226;5.798;2022-07-29T00:58:20;3.13;;;1.67;;
14965;SDS011;7577;45.226;5.798;2022-07-29T01:00:51;2.37;;;1.60;;
14965;SDS011;7577;45.226;5.798;2022-07-29T01:03:22;2.27;;;1.70;;
14965;SDS011;7577;45.226;5.798;2022-07-29T01:05:52;3.13;;;1.87;;
14965;SDS011;7577;45.226;5.798;2022-07-29T01:09:10;2.83;;;1.73;;
14965;SDS011;7577;45.226;5.798;2022-07-29T01:11:44;3.17;;;2.03;;
14965;SDS011;7577;45.226;5.798;2022-07-29T01:14:18;2.10;;;1.70;;
14965;SDS011;7577;45.226;5.798;2022-07-29T01:16:51;2.23;;;2.00;;
14965;SDS011;7577;45.226;5.798;2022-07-29T01:19:31;2.27;;;1.70;;
14965;SDS011;7577;45.226;5.798;2022-07-29T01:22:16;3.07;;;1.90;;
14965;SDS011;7577;45.226;5.798;2022-07-29T01:24:55;1.60;;;1.50;;
14965;SDS011;7577;45.226;5.798;2022-07-29T01:27:38;4.40;;;1.90;;
14965;SDS011;7577;45.226;5.798;2022-07-29T01:30:16;2.33;;;1.60;;
14965;SDS011;7577;45.226;5.798;2022-07-29T01:32:58;2.47;;;1.70;;
14965;SDS011;7577;45.226;5.798;2022-07-29T01:35:32;2.50;;;1.90;;
14965;SDS011;7577;45.226;5.798;2022-07-29T01:38:06;1.77;;;1.67;;
14965;SDS011;7577;45.226;5.798;2022-07-29T01:40:40;2.03;;;1.60;;
14965;SDS011;7577;45.226;5.798;2022-07-29T01:43:31;2.27;;;1.80;;
14965;SDS011;7577;45.226;5.798;2022-07-29T01:46:01;3.17;;;1.90;;
14965;SDS011;7577;45.226;5.798;2022-07-29T01:48:38;1.60;;;1.50;;
14965;SDS011;7577;45.226;5.798;2022-07-29T01:51:25;1.70;;;1.60;;
14965;SDS011;7577;45.226;5.798;2022-07-29T01:54:01;2.97;;;1.87;;
14965;SDS011;7577;45.226;5.798;2022-07-29T01:56:37;2.67;;;1.80;;
14965;SDS011;7577;45.226;5.798;2022-07-29T01:59:08;2.10;;;1.47;;
14965;SDS011;7577;45.226;5.798;2022-07-29T02:01:40;1.70;;;1.60;;
14965;SDS011;7577;45.226;5.798;2022-07-29T02:04:13;2.83;;;1.80;;
14965;SDS011;7577;45.226;5.798;2022-07-29T02:06:45;1.80;;;1.50;;
14965;SDS011;7577;45.226;5.798;2022-07-29T02:09:18;2.47;;;1.80;;
14965;SDS011;7577;45.226;5.798;2022-07-29T02:11:52;2.17;;;1.67;;
14965;SDS011;7577;45.226;5.798;2022-07-29T02:14:24;2.10;;;1.90;;
14965;SDS011;7577;45.226;5.798;2022-07-29T02:17:07;1.60;;;1.50;;
14965;SDS011;7577;45.226;5.798;2022-07-29T02:19:48;2.43;;;1.80;;
14965;SDS011;7577;45.226;5.798;2022-07-29T02:22:40;3.00;;;1.83;;
14965;SDS011;7577;45.226;5.798;2022-07-29T02:25:12;2.20;;;1.73;;
14965;SDS011;7577;45.226;5.798;2022-07-29T02:28:13;2.17;;;1.60;;
14965;SDS011;7577;45.226;5.798;2022-07-29T02:30:46;2.03;;;1.67;;
14965;SDS011;7577;45.226;5.798;2022-07-29T02:33:19;2.30;;;1.70;;
14965;SDS011;7577;45.226;5.798;2022-07-29T02:36:00;2.20;;;1.60;;
14965;SDS011;7577;45.226;5.798;2022-07-29T02:38:32;2.00;;;1.70;;
14965;SDS011;7577;45.226;5.798;2022-07-29T02:41:20;3.73;;;1.73;;
14965;SDS011;7577;45.226;5.798;2022-07-29T02:43:55;2.07;;;1.83;;
14965;SDS011;7577;45.226;5.798;2022-07-29T02:46:29;2.43;;;1.93;;
14965;SDS011;7577;45.226;5.798;2022-07-29T02:49:04;2.53;;;1.60;;
14965;SDS011;7577;45.226;5.798;2022-07-29T02:51:40;2.00;;;1.83;;
14965;SDS011;7577;45.226;5.798;2022-07-29T02:54:14;1.47;;;1.37;;
14965;SDS011;7577;45.226;5.798;2022-07-29T02:56:50;1.67;;;1.57;;
14965;SDS011;7577;45.226;5.798;2022-07-29T02:59:25;2.27;;;1.57;;
14965;SDS011;7577;45.226;5.798;2022-07-29T03:01:57;1.93;;;1.50;;
14965;SDS011;7577;45.226;5.798;2022-07-29T03:04:28;3.40;;;1.60;;
14965;SDS011;7577;45.226;5.798;2022-07-29T03:07:01;2.90;;;2.00;;
14965;SDS011;7577;45.226;5.798;2022-07-29T03:09:51;1.60;;;1.50;;
14965;SDS011;7577;45.226;5.798;2022-07-29T03:12:23;3.40;;;1.67;;
14965;SDS011;7577;45.226;5.798;2022-07-29T03:14:54;2.43;;;1.70;;
14965;SDS011;7577;45.226;5.798;2022-07-29T03:17:36;2.93;;;1.97;;
14965;SDS011;7577;45.226;5.798;2022-07-29T03:20:08;2.17;;;1.77;;
14965;SDS011;7577;45.226;5.798;2022-07-29T03:22:58;2.10;;;1.90;;
14965;SDS011;7577;45.226;5.798;2022-07-29T03:25:28;3.00;;;1.80;;
14965;SDS011;7577;45.226;5.798;2022-07-29T03:28:13;1.90;;;1.70;;
14965;SDS011;7577;45.226;5.798;2022-07-29T03:30:46;2.27;;;1.93;;
14965;SDS011;7577;45.226;5.798;2022-07-29T03:33:17;3.57;;;1.70;;
14965;SDS011;7577;45.226;5.798;2022-07-29T03:35:47;2.70;;;1.57;;
14965;SDS011;7577;45.226;5.798;2022-07-29T03:38:17;2.30;;;2.00;;
14965;SDS011;7577;45.226;5.798;2022-07-29T03:41:05;2.10;;;1.70;;
14965;SDS011;7577;45.226;5.798;2022-07-29T03:43:47;1.70;;;1.50;;
14965;SDS011;7577;45.226;5.798;2022-07-29T03:46:18;4.37;;;1.80;;
14965;SDS011;7577;45.226;5.798;2022-07-29T03:48:52;1.50;;;1.37;;
14965;SDS011;7577;45.226;5.798;2022-07-29T03:51:25;2.00;;;1.60;;
14965;SDS011;7577;45.226;5.798;2022-07-29T03:53:55;2.47;;;1.50;;
14965;SDS011;7577;45.226;5.798;2022-07-29T03:56:26;2.60;;;1.80;;
14965;SDS011;7577;45.226;5.798;2022-07-29T03:58:58;4.00;;;1.73;;
14965;SDS011;7577;45.226;5.798;2022-07-29T04:01:30;2.00;;;1.70;;
14965;SDS011;7577;45.226;5.798;2022-07-29T04:04:02;1.93;;;1.60;;
14965;SDS011;7577;45.226;5.798;2022-07-29T04:06:38;2.00;;;1.40;;
14965;SDS011;7577;45.226;5.798;2022-07-29T04:09:09;3.23;;;1.73;;
14965;SDS011;7577;45.226;5.798;2022-07-29T04:11:42;2.47;;;1.60;;
14965;SDS011;7577;45.226;5.798;2022-07-29T04:14:13;1.90;;;1.40;;
14965;SDS011;7577;45.226;5.798;2022-07-29T04:16:54;3.03;;;1.53;;
14965;SDS011;7577;45.226;5.798;2022-07-29T04:19:27;1.70;;;1.50;;
14965;SDS011;7577;45.226;5.798;2022-07-29T04:21:59;1.60;;;1.43;;
14965;SDS011;7577;45.226;5.798;2022-07-29T04:24:30;1.77;;;1.50;;
14965;SDS011;7577;45.226;5.798;2022-07-29T04:27:00;3.13;;;1.60;;
14965;SDS011;7577;45.226;5.798;2022-07-29T04:29:30;3.63;;;1.80;;
14965;SDS011;7577;45.226;5.798;2022-07-29T04:32:01;8.57;;;2.53;;
14965;SDS011;7577;45.226;5.798;2022-07-29T04:34:45;5.50;;;1.83;;
14965;SDS011;7577;45.226;5.798;2022-07-29T04:37:19;4.00;;;1.70;;
14965;SDS011;7577;45.226;5.798;2022-07-29T04:40:02;2.00;;;1.70;;
14965;SDS011;7577;45.226;5.798;2022-07-29T04:42:35;4.17;;;1.70;;
14965;SDS011;7577;45.226;5.798;2022-07-29T04:45:09;2.30;;;1.43;;
14965;SDS011;7577;45.226;5.798;2022-07-29T04:47:39;1.97;;;1.70;;
14965;SDS011;7577;45.226;5.798;2022-07-29T04:50:13;3.33;;;1.90;;
14965;SDS011;7577;45.226;5.798;2022-07-29T04:52:43;3.90;;;1.90;;
14965;SDS011;7577;45.226;5.798;2022-07-29T04:55:17;2.33;;;1.67;;
14965;SDS011;7577;45.226;5.798;2022-07-29T04:57:51;1.73;;;1.60;;
14965;SDS011;7577;45.226;5.798;2022-07-29T05:00:22;2.60;;;2.03;;
14965;SDS011;7577;45.226;5.798;2022-07-29T05:02:54;4.03;;;2.00;;
14965;SDS011;7577;45.226;5.798;2022-07-29T05:05:25;1.87;;;1.70;;
14965;SDS011;7577;45.226;5.798;2022-07-29T05:07:55;2.57;;;1.87;;
14965;SDS011;7577;45.226;5.798;2022-07-29T05:10:25;1.87;;;1.53;;
14965;SDS011;7577;45.226;5.798;2022-07-29T05:12:56;2.20;;;1.67;;
14965;SDS011;7577;45.226;5.798;2022-07-29T05:15:27;2.10;;;1.80;;
14965;SDS011;7577;45.226;5.798;2022-07-29T05:17:57;3.17;;;1.80;;
14965;SDS011;7577;45.226;5.798;2022-07-29T05:20:28;2.37;;;2.17;;
14965;SDS011;7577;45.226;5.798;2022-07-29T05:23:00;2.30;;;1.90;;
14965;SDS011;7577;45.226;5.798;2022-07-29T05:25:34;2.10;;;1.90;;
14965;SDS011;7577;45.226;5.798;2022-07-29T05:28:04;1.90;;;1.77;;
14965;SDS011;7577;45.226;5.798;2022-07-29T05:30:34;4.40;;;1.83;;
14965;SDS011;7577;45.226;5.798;2022-07-29T05:33:05;2.67;;;2.00;;
14965;SDS011;7577;45.226;5.798;2022-07-29T05:35:51;2.40;;;2.20;;
14965;SDS011;7577;45.226;5.798;2022-07-29T05:38:22;2.57;;;1.90;;
14965;SDS011;7577;45.226;5.798;2022-07-29T05:40:57;4.63;;;1.67;;
14965;SDS011;7577;45.226;5.798;2022-07-29T05:43:28;2.50;;;1.83;;
14965;SDS011;7577;45.226;5.798;2022-07-29T05:45:59;3.33;;;1.80;;
14965;SDS011;7577;45.226;5.798;2022-07-29T05:48:32;3.10;;;2.10;;
14965;SDS011;7577;45.226;5.798;2022-07-29T05:51:02;3.97;;;2.07;;
14965;SDS011;7577;45.226;5.798;2022-07-29T05:53:37;2.30;;;2.03;;
14965;SDS011;7577;45.226;5.798;2022-07-29T05:56:16;3.07;;;2.13;;
14965;SDS011;7577;45.226;5.798;2022-07-29T05:58:48;2.30;;;2.10;;
14965;SDS011;7577;45.226;5.798;2022-07-29T06:01:19;3.27;;;2.20;;
14965;SDS011;7577;45.226;5.798;2022-07-29T06:03:59;2.53;;;2.33;;
14965;SDS011;7577;45.226;5.798;2022-07-29T06:06:33;3.40;;;2.20;;
14965;SDS011;7577;45.226;5.798;2022-07-29T06:09:04;2.77;;;1.80;;
14965;SDS011;7577;45.226;5.798;2022-07-29T06:11:44;2.50;;;2.10;;
14965;SDS011;7577;45.226;5.798;2022-07-29T06:14:17;2.87;;;2.23;;
14965;SDS011;7577;45.226;5.798;2022-07-29T06:16:50;2.57;;;1.80;;
14965;SDS011;7577;45.226;5.798;2022-07-29T06:19:22;3.10;;;2.00;;
14965;SDS011;7577;45.226;5.798;2022-07-29T06:21:52;3.10;;;2.23;;
14965;SDS011;7577;45.226;5.798;2022-07-29T06:24:26;2.40;;;2.17;;
14965;SDS011;7577;45.226;5.798;2022-07-29T06:26:58;4.40;;;1.97;;
14965;SDS011;7577;45.226;5.798;2022-07-29T06:29:31;3.93;;;2.40;;
14965;SDS011;7577;45.226;5.798;2022-07-29T06:32:01;2.50;;;2.30;;
14965;SDS011;7577;45.226;5.798;2022-07-29T06:45:34;3.57;;;2.30;;
14965;SDS011;7577;45.226;5.798;2022-07-29T06:48:06;5.40;;;2.20;;
14965;SDS011;7577;45.226;5.798;2022-07-29T07:15:14;5.47;;;2.30;;
14965;SDS011;7577;45.226;5.798;2022-07-29T07:30:54;3.50;;;2.50;;
14965;SDS011;7577;45.226;5.798;2022-07-29T08:03:52;4.00;;;2.40;;
14965;SDS011;7577;45.226;5.798;2022-07-29T08:06:29;2.73;;;2.10;;
14965;SDS011;7577;45.226;5.798;2022-07-29T08:09:20;4.67;;;2.40;;
14965;SDS011;7577;45.226;5.798;2022-07-29T08:12:00;4.60;;;2.30;;
14965;SDS011;7577;45.226;5.798;2022-07-29T08:14:41;4.17;;;2.50;;
14965;SDS011;7577;45.226;5.798;2022-07-29T08:18:01;3.93;;;2.33;;
14965;SDS011;7577;45.226;5.798;2022-07-29T08:21:10;3.87;;;2.27;;
14965;SDS011;7577;45.226;5.798;2022-07-29T08:56:30;6.53;;;2.97;;
14965;SDS011;7577;45.226;5.798;2022-07-29T08:59:05;8.60;;;3.03;;
14965;SDS011;7577;45.226;5.798;2022-07-29T09:01:47;6.53;;;2.67;;
14965;SDS011;7577;45.226;5.798;2022-07-29T09:21:33;3.83;;;3.07;;
14965;SDS011;7577;45.226;5.798;2022-07-29T09:24:27;4.47;;;3.10;;
14965;SDS011;7577;45.226;5.798;2022-07-29T09:27:20;3.87;;;2.60;;
14965;SDS011;7577;45.226;5.798;2022-07-29T09:30:51;3.47;;;2.90;;
14965;SDS011;7577;45.226;5.798;2022-07-29T09:33:33;4.00;;;3.07;;
14965;SDS011;7577;45.226;5.798;2022-07-29T09:36:14;3.67;;;2.97;;
14965;SDS011;7577;45.226;5.798;2022-07-29T09:38:57;4.63;;;3.27;;
14965;SDS011;7577;45.226;5.798;2022-07-29T09:41:35;10.20;;;3.73;;
14965;SDS011;7577;45.226;5.798;2022-07-29T09:44:25;4.63;;;3.33;;
14965;SDS011;7577;45.226;5.798;2022-07-29T09:47:04;5.70;;;3.57;;
14965;SDS011;7577;45.226;5.798;2022-07-29T09:49:51;3.50;;;3.20;;
14965;SDS011;7577;45.226;5.798;2022-07-29T09:52:26;8.47;;;3.20;;
14965;SDS011;7577;45.226;5.798;2022-07-29T10:16:37;5.23;;;3.80;;
14965;SDS011;7577;45.226;5.798;2022-07-29T10:19:10;6.30;;;3.90;;
14965;SDS011;7577;45.226;5.798;2022-07-29T10:21:42;6.10;;;4.27;;
14965;SDS011;7577;45.226;5.798;2022-07-29T10:24:12;5.77;;;4.20;;
14965;SDS011;7577;45.226;5.798;2022-07-29T10:26:46;11.70;;;5.47;;
14965;SDS011;7577;45.226;5.798;2022-07-29T10:29:36;7.67;;;4.50;;
14965;SDS011;7577;45.226;5.798;2022-07-29T10:32:13;7.90;;;4.60;;
14965;SDS011;7577;45.226;5.798;2022-07-29T10:48:27;7.13;;;4.50;;
14965;SDS011;7577;45.226;5.798;2022-07-29T11:05:30;7.33;;;4.20;;
14965;SDS011;7577;45.226;5.798;2022-07-29T11:08:36;4.47;;;3.90;;
14965;SDS011;7577;45.226;5.798;2022-07-29T11:18:10;5.20;;;4.70;;
14965;SDS011;7577;45.226;5.798;2022-07-29T11:24:28;7.30;;;4.80;;
14965;SDS011;7577;45.226;5.798;2022-07-29T11:27:21;6.13;;;4.60;;
14965;SDS011;7577;45.226;5.798;2022-07-29T11:29:56;5.53;;;5.00;;
14965;SDS011;7577;45.226;5.798;2022-07-29T11:32:48;5.67;;;4.13;;
14965;SDS011;7577;45.226;5.798;2022-07-29T11:51:27;8.90;;;5.43;;
14965;SDS011;7577;45.226;5.798;2022-07-29T12:21:06;8.17;;;6.73;;
14965;SDS011;7577;45.226;5.798;2022-07-29T12:23:38;9.47;;;7.07;;
14965;SDS011;7577;45.226;5.798;2022-07-29T12:26:29;8.90;;;6.50;;
14965;SDS011;7577;45.226;5.798;2022-07-29T12:29:18;8.03;;;6.57;;
14965;SDS011;7577;45.226;5.798;2022-07-29T12:34:44;7.30;;;6.60;;
14965;SDS011;7577;45.226;5.798;2022-07-29T12:37:20;6.87;;;6.17;;
14965;SDS011;7577;45.226;5.798;2022-07-29T12:39:56;6.80;;;6.10;;
14965;SDS011;7577;45.226;5.798;2022-07-29T12:59:51;5.67;;;4.83;;
14965;SDS011;7577;45.226;5.798;2022-07-29T13:02:55;5.10;;;4.60;;
14965;SDS011;7577;45.226;5.798;2022-07-29T13:54:13;4.50;;;4.10;;
14965;SDS011;7577;45.226;5.798;2022-07-29T13:56:47;4.10;;;3.70;;
14965;SDS011;7577;45.226;5.798;2022-07-29T13:59:25;3.63;;;3.33;;
14965;SDS011;7577;45.226;5.798;2022-07-29T14:02:05;3.83;;;3.40;;
14965;SDS011;7577;45.226;5.798;2022-07-29T14:04:46;5.73;;;3.57;;
14965;SDS011;7577;45.226;5.798;2022-07-29T14:07:23;3.80;;;3.40;;
14965;SDS011;7577;45.226;5.798;2022-07-29T14:31:37;4.67;;;3.50;;
14965;SDS011;7577;45.226;5.798;2022-07-29T14:34:13;4.13;;;3.73;;
14965;SDS011;7577;45.226;5.798;2022-07-29T14:50:17;4.47;;;3.30;;
14965;SDS011;7577;45.226;5.798;2022-07-29T15:19:49;2.57;;;2.37;;
14965;SDS011;7577;45.226;5.798;2022-07-29T15:22:25;3.27;;;2.40;;
14965;SDS011;7577;45.226;5.798;2022-07-29T15:25:04;3.80;;;2.50;;
14965;SDS011;7577;45.226;5.798;2022-07-29T15:38:56;2.43;;;2.17;;
14965;SDS011;7577;45.226;5.798;2022-07-29T15:41:32;2.90;;;2.20;;
14965;SDS011;7577;45.226;5.798;2022-07-29T15:54:41;1.80;;;1.70;;
14965;SDS011;7577;45.226;5.798;2022-07-29T16:10:41;2.47;;;1.60;;
14965;SDS011;7577;45.226;5.798;2022-07-29T16:13:16;1.60;;;1.50;;
14965;SDS011;7577;45.226;5.798;2022-07-29T16:15:47;2.90;;;1.50;;
14965;SDS011;7577;45.226;5.798;2022-07-29T16:37:00;1.53;;;1.20;;
14965;SDS011;7577;45.226;5.798;2022-07-29T16:39:33;1.97;;;1.30;;
14965;SDS011;7577;45.226;5.798;2022-07-29T16:42:03;1.60;;;1.50;;
14965;SDS011;7577;45.226;5.798;2022-07-29T16:44:37;2.27;;;1.30;;
14965;SDS011;7577;45.226;5.798;2022-07-29T16:47:07;1.33;;;1.23;;
14965;SDS011;7577;45.226;5.798;2022-07-29T16:49:37;1.50;;;1.40;;
14965;SDS011;7577;45.226;5.798;2022-07-29T16:52:07;1.57;;;1.33;;
14965;SDS011;7577;45.226;5.798;2022-07-29T16:54:37;1.47;;;1.30;;
14965;SDS011;7577;45.226;5.798;2022-07-29T16:57:08;1.20;;;1.20;;
14965;SDS011;7577;45.226;5.798;2022-07-29T16:59:49;1.80;;;1.30;;
14965;SDS011;7577;45.226;5.798;2022-07-29T17:02:20;2.20;;;1.50;;
14965;SDS011;7577;45.226;5.798;2022-07-29T17:04:50;1.27;;;1.17;;
14965;SDS011;7577;45.226;5.798;2022-07-29T17:07:26;1.47;;;1.00;;
14965;SDS011;7577;45.226;5.798;2022-07-29T17:09:56;1.40;;;1.30;;
14965;SDS011;7577;45.226;5.798;2022-07-29T17:12:29;1.50;;;1.40;;
14965;SDS011;7577;45.226;5.798;2022-07-29T17:15:12;2.23;;;1.10;;
14965;SDS011;7577;45.226;5.798;2022-07-29T17:17:46;1.30;;;1.20;;
14965;SDS011;7577;45.226;5.798;2022-07-29T17:20:17;1.30;;;1.20;;
14965;SDS011;7577;45.226;5.798;2022-07-29T17:22:47;1.30;;;1.20;;
14965;SDS011;7577;45.226;5.798;2022-07-29T17:36:07;1.67;;;1.20;;
14965;SDS011;7577;45.226;5.798;2022-07-29T17:38:54;1.10;;;1.00;;
14965;SDS011;7577;45.226;5.798;2022-07-29T17:41:26;1.20;;;1.10;;
14965;SDS011;7577;45.226;5.798;2022-07-29T17:43:56;1.00;;;1.00;;
14965;SDS011;7577;45.226;5.798;2022-07-29T17:46:27;0.80;;;0.80;;
14965;SDS011;7577;45.226;5.798;2022-07-29T17:48:57;1.23;;;1.00;;
14965;SDS011;7577;45.226;5.798;2022-07-29T17:51:27;1.00;;;0.93;;
14965;SDS011;7577;45.226;5.798;2022-07-29T17:54:01;1.03;;;0.90;;
14965;SDS011;7577;45.226;5.798;2022-07-29T17:56:38;0.90;;;0.90;;
14965;SDS011;7577;45.226;5.798;2022-07-29T17:59:09;0.90;;;0.90;;
14965;SDS011;7577;45.226;5.798;2022-07-29T18:12:33;1.27;;;1.10;;
14965;SDS011;7577;45.226;5.798;2022-07-29T18:29:01;1.30;;;1.20;;
14965;SDS011;7577;45.226;5.798;2022-07-29T18:31:36;1.40;;;1.30;;
14965;SDS011;7577;45.226;5.798;2022-07-29T18:45:02;1.30;;;1.20;;
14965;SDS011;7577;45.226;5.798;2022-07-29T18:47:43;1.47;;;1.33;;
14965;SDS011;7577;45.226;5.798;2022-07-29T19:00:48;2.60;;;1.10;;
14965;SDS011;7577;45.226;5.798;2022-07-29T19:03:18;1.70;;;1.00;;
14965;SDS011;7577;45.226;5.798;2022-07-29T19:05:59;1.33;;;1.23;;
14965;SDS011;7577;45.226;5.798;2022-07-29T19:08:36;1.00;;;1.00;;
14965;SDS011;7577;45.226;5.798;2022-07-29T19:11:11;1.10;;;1.00;;
14965;SDS011;7577;45.226;5.798;2022-07-29T19:13:51;0.90;;;0.90;;
14965;SDS011;7577;45.226;5.798;2022-07-29T19:16:38;1.40;;;1.00;;
14965;SDS011;7577;45.226;5.798;2022-07-29T19:19:17;1.50;;;1.10;;
14965;SDS011;7577;45.226;5.798;2022-07-29T19:21:57;1.50;;;1.10;;
14965;SDS011;7577;45.226;5.798;2022-07-29T19:24:33;2.33;;;1.10;;
14965;SDS011;7577;45.226;5.798;2022-07-29T19:27:10;1.20;;;1.10;;
14965;SDS011;7577;45.226;5.798;2022-07-29T19:29:42;1.80;;;1.20;;
14965;SDS011;7577;45.226;5.798;2022-07-29T19:32:23;1.70;;;1.33;;
14965;SDS011;7577;45.226;5.798;2022-07-29T19:35:03;1.20;;;1.10;;
14965;SDS011;7577;45.226;5.798;2022-07-29T19:38:11;1.40;;;1.30;;
14965;SDS011;7577;45.226;5.798;2022-07-29T19:40:46;1.37;;;1.17;;
14965;SDS011;7577;45.226;5.798;2022-07-29T19:43:19;1.60;;;1.10;;
14965;SDS011;7577;45.226;5.798;2022-07-29T19:45:50;0.80;;;0.80;;
14965;SDS011;7577;45.226;5.798;2022-07-29T19:48:27;3.27;;;1.20;;
14965;SDS011;7577;45.226;5.798;2022-07-29T19:50:57;1.47;;;1.37;;
14965;SDS011;7577;45.226;5.798;2022-07-29T19:53:27;1.27;;;1.17;;
14965;SDS011;7577;45.226;5.798;2022-07-29T19:56:09;2.87;;;1.40;;
14965;SDS011;7577;45.226;5.798;2022-07-29T19:58:39;1.07;;;1.00;;
14965;SDS011;7577;45.226;5.798;2022-07-29T20:01:10;1.23;;;1.10;;
14965;SDS011;7577;45.226;5.798;2022-07-29T20:03:43;1.07;;;1.07;;
14965;SDS011;7577;45.226;5.798;2022-07-29T20:06:13;1.50;;;1.40;;
14965;SDS011;7577;45.226;5.798;2022-07-29T20:08:44;1.83;;;1.00;;
14965;SDS011;7577;45.226;5.798;2022-07-29T20:11:14;1.47;;;1.20;;
14965;SDS011;7577;45.226;5.798;2022-07-29T20:13:44;1.87;;;1.20;;
14965;SDS011;7577;45.226;5.798;2022-07-29T20:16:15;2.27;;;1.27;;
14965;SDS011;7577;45.226;5.798;2022-07-29T20:29:39;1.33;;;1.20;;
14965;SDS011;7577;45.226;5.798;2022-07-29T20:32:10;1.43;;;1.33;;
14965;SDS011;7577;45.226;5.798;2022-07-29T20:34:53;1.30;;;1.20;;
14965;SDS011;7577;45.226;5.798;2022-07-29T20:37:24;1.90;;;1.20;;
14965;SDS011;7577;45.226;5.798;2022-07-29T20:40:05;1.60;;;1.30;;
14965;SDS011;7577;45.226;5.798;2022-07-29T20:42:43;2.50;;;2.00;;
14965;SDS011;7577;45.226;5.798;2022-07-29T20:45:25;1.20;;;1.10;;
14965;SDS011;7577;45.226;5.798;2022-07-29T20:47:58;1.80;;;1.70;;
14965;SDS011;7577;45.226;5.798;2022-07-29T20:50:28;1.50;;;1.40;;
14965;SDS011;7577;45.226;5.798;2022-07-29T20:53:02;1.33;;;1.23;;
14965;SDS011;7577;45.226;5.798;2022-07-29T20:55:39;1.60;;;1.30;;
14965;SDS011;7577;45.226;5.798;2022-07-29T20:58:09;1.33;;;1.20;;
14965;SDS011;7577;45.226;5.798;2022-07-29T21:00:41;1.87;;;1.33;;
14965;SDS011;7577;45.226;5.798;2022-07-29T21:03:11;1.30;;;1.20;;
14965;SDS011;7577;45.226;5.798;2022-07-29T21:05:48;1.43;;;1.33;;
14965;SDS011;7577;45.226;5.798;2022-07-29T21:08:18;1.80;;;1.40;;
14965;SDS011;7577;45.226;5.798;2022-07-29T21:10:52;1.33;;;1.23;;
14965;SDS011;7577;45.226;5.798;2022-07-29T21:13:26;2.40;;;1.40;;
14965;SDS011;7577;45.226;5.798;2022-07-29T21:15:59;2.40;;;1.20;;
14965;SDS011;7577;45.226;5.798;2022-07-29T21:18:42;1.60;;;1.40;;
14965;SDS011;7577;45.226;5.798;2022-07-29T21:21:16;1.50;;;1.40;;
14965;SDS011;7577;45.226;5.798;2022-07-29T21:23:53;1.17;;;1.10;;
14965;SDS011;7577;45.226;5.798;2022-07-29T21:26:23;1.60;;;1.50;;
14965;SDS011;7577;45.226;5.798;2022-07-29T21:28:53;1.60;;;1.50;;
14965;SDS011;7577;45.226;5.798;2022-07-29T21:31:23;1.70;;;1.40;;
14965;SDS011;7577;45.226;5.798;2022-07-29T21:34:07;1.00;;;0.90;;
14965;SDS011;7577;45.226;5.798;2022-07-29T21:36:43;2.20;;;1.40;;
14965;SDS011;7577;45.226;5.798;2022-07-29T21:39:14;1.60;;;1.50;;
14965;SDS011;7577;45.226;5.798;2022-07-29T21:41:44;1.40;;;1.30;;
14965;SDS011;7577;45.226;5.798;2022-07-29T21:44:14;1.47;;;1.37;;
14965;SDS011;7577;45.226;5.798;2022-07-29T21:46:50;1.90;;;1.73;;
14965;SDS011;7577;45.226;5.798;2022-07-29T21:49:20;3.27;;;1.30;;
14965;SDS011;7577;45.226;5.798;2022-07-29T21:51:58;3.17;;;1.50;;
14965;SDS011;7577;45.226;5.798;2022-07-29T21:54:28;1.50;;;1.40;;
14965;SDS011;7577;45.226;5.798;2022-07-29T21:56:59;1.50;;;1.37;;
14965;SDS011;7577;45.226;5.798;2022-07-29T21:59:29;3.60;;;1.80;;
14965;SDS011;7577;45.226;5.798;2022-07-29T22:01:59;2.80;;;1.80;;
14965;SDS011;7577;45.226;5.798;2022-07-29T22:04:35;3.40;;;1.50;;
14965;SDS011;7577;45.226;5.798;2022-07-29T22:07:05;2.17;;;1.97;;
14965;SDS011;7577;45.226;5.798;2022-07-29T22:09:36;2.07;;;1.87;;
14965;SDS011;7577;45.226;5.798;2022-07-29T22:12:06;2.33;;;1.80;;
14965;SDS011;7577;45.226;5.798;2022-07-29T22:14:46;3.67;;;2.00;;
14965;SDS011;7577;45.226;5.798;2022-07-29T22:17:25;2.90;;;2.17;;
14965;SDS011;7577;45.226;5.798;2022-07-29T22:19:55;1.83;;;1.73;;
14965;SDS011;7577;45.226;5.798;2022-07-29T22:22:25;1.90;;;1.70;;
14965;SDS011;7577;45.226;5.798;2022-07-29T22:35:29;3.20;;;1.80;;
14965;SDS011;7577;45.226;5.798;2022-07-29T22:37:59;1.80;;;1.70;;
14965;SDS011;7577;45.226;5.798;2022-07-29T22:40:40;2.70;;;1.77;;
14965;SDS011;7577;45.226;5.798;2022-07-29T22:43:11;1.83;;;1.57;;
14965;SDS011;7577;45.226;5.798;2022-07-29T22:45:41;2.57;;;1.50;;
14965;SDS011;7577;45.226;5.798;2022-07-29T22:48:19;1.80;;;1.70;;
14965;SDS011;7577;45.226;5.798;2022-07-29T22:50:49;1.87;;;1.50;;
14965;SDS011;7577;45.226;5.798;2022-07-29T22:53:19;1.90;;;1.67;;
14965;SDS011;7577;45.226;5.798;2022-07-29T22:55:49;2.53;;;1.77;;
14965;SDS011;7577;45.226;5.798;2022-07-29T22:58:26;2.27;;;1.60;;
14965;SDS011;7577;45.226;5.798;2022-07-29T23:00:56;1.57;;;1.47;;
14965;SDS011;7577;45.226;5.798;2022-07-29T23:03:27;3.13;;;1.67;;
14965;SDS011;7577;45.226;5.798;2022-07-29T23:06:03;1.73;;;1.63;;
14965;SDS011;7577;45.226;5.798;2022-07-29T23:08:39;1.57;;;1.37;;
14965;SDS011;7577;45.226;5.798;2022-07-29T23:11:15;2.47;;;1.50;;
14965;SDS011;7577;45.226;5.798;2022-07-29T23:13:45;2.33;;;1.80;;
14965;SDS011;7577;45.226;5.798;2022-07-29T23:16:15;1.83;;;1.70;;
14965;SDS011;7577;45.226;5.798;2022-07-29T23:18:45;1.90;;;1.47;;
14965;SDS011;7577;45.226;5.798;2022-07-29T23:21:28;3.00;;;1.43;;
14965;SDS011;7577;45.226;5.798;2022-07-29T23:23:59;1.73;;;1.50;;
14965;SDS011;7577;45.226;5.798;2022-07-29T23:26:29;2.17;;;1.50;;
14965;SDS011;7577;45.226;5.798;2022-07-29T23:29:02;2.43;;;1.60;;
14965;SDS011;7577;45.226;5.798;2022-07-29T23:31:38;1.73;;;1.63;;
14965;SDS011;7577;45.226;5.798;2022-07-29T23:34:22;1.60;;;1.50;;
14965;SDS011;7577;45.226;5.798;2022-07-29T23:36:52;3.93;;;1.90;;
14965;SDS011;7577;45.226;5.798;2022-07-29T23:39:22;2.47;;;1.80;;
14965;SDS011;7577;45.226;5.798;2022-07-29T23:41:54;1.57;;;1.40;;
14965;SDS011;7577;45.226;5.798;2022-07-29T23:44:25;1.60;;;1.43;;
14965;SDS011;7577;45.226;5.798;2022-07-29T23:46:55;1.57;;;1.47;;
14965;SDS011;7577;45.226;5.798;2022-07-29T23:49:31;1.67;;;1.57;;
14965;SDS011;7577;45.226;5.798;2022-07-29T23:52:02;2.13;;;1.67;;
14965;SDS011;7577;45.226;5.798;2022-07-29T23:54:33;2.73;;;1.70;;
14965;SDS011;7577;45.226;5.798;2022-07-29T23:57:03;1.60;;;1.50;;
14965;SDS011;7577;45.226;5.798;2022-07-29T23:59:33;1.70;;;1.60;;
